Cayuta, New York
Current Conditions -  °F | °C
As of 6:53 PM on Sunday 21 Dec 2014 (Local Time) from KELM Reporting Station
Overcast Overcast  
Wind Chill: 31°   Ceiling: 2600
Heat Index: 31°   Visibility: 10mi
Dew Point: 23°   Wind: 3mph
Humidity: 72%   Direction: 200°SSW
Pressure: 30.3"   Gusts: NA
Location:  42.28°N, 76.7°W
Report Text: KELM 212353Z AUTO 20003KT 10SM OVC026 M01/M05 A3030 RMK AO2 SLP273 T10061050 10006 21006 53009
Loading
Personal Weather Stations






























Interactive Weather Map New forecast layout! Learn more

10-Day Weather Forecast

Advertisements
Track Severe Weather on mobile